createdAt,value
2023-04-08T00:00:10.773Z,12.77
2023-04-08T00:02:37.615Z,15.85
2023-04-08T00:05:04.973Z,13.80
2023-04-08T00:07:31.826Z,20.05
2023-04-08T00:09:58.387Z,21.40
2023-04-08T00:12:25.020Z,18.60
2023-04-08T00:14:52.989Z,18.15
2023-04-08T00:17:19.589Z,20.90
2023-04-08T00:19:46.250Z,16.90
2023-04-08T00:22:12.972Z,16.50
2023-04-08T00:24:40.867Z,24.25
2023-04-08T00:27:07.552Z,16.38
2023-04-08T00:29:34.392Z,16.77
2023-04-08T00:32:00.966Z,14.43
2023-04-08T00:34:27.536Z,15.38
2023-04-08T00:36:54.116Z,16.00
2023-04-08T00:39:21.074Z,12.98
2023-04-08T00:41:47.685Z,15.80
2023-04-08T00:44:14.381Z,13.30
2023-04-08T00:46:41.378Z,21.15
2023-04-08T00:49:08.321Z,13.55
2023-04-08T00:51:37.699Z,16.02
2023-04-08T00:54:05.324Z,14.48
2023-04-08T00:56:33.024Z,21.63
2023-04-08T00:59:01.107Z,20.50
2023-04-08T01:01:46.199Z,14.27
2023-04-08T01:04:30.219Z,17.75
2023-04-08T01:07:08.504Z,17.70
2023-04-08T01:09:39.641Z,20.90
2023-04-08T01:12:09.425Z,20.92
2023-04-08T01:14:41.312Z,18.75
2023-04-08T01:17:09.697Z,17.98
2023-04-08T01:19:40.476Z,18.98
2023-04-08T01:22:19.592Z,16.15
2023-04-08T01:24:50.392Z,21.70
2023-04-08T01:27:19.121Z,22.25
2023-04-08T01:29:48.763Z,16.52
2023-04-08T01:32:17.063Z,17.40
2023-04-08T01:34:45.378Z,14.50
2023-04-08T01:37:13.612Z,19.00
2023-04-08T01:39:42.241Z,16.63
2023-04-08T01:42:10.679Z,20.85
2023-04-08T01:44:40.296Z,14.68
2023-04-08T01:47:08.040Z,18.38
2023-04-08T01:49:35.666Z,13.70
2023-04-08T01:52:03.659Z,15.65
2023-04-08T01:54:30.456Z,19.05
2023-04-08T01:56:58.900Z,20.00
2023-04-08T01:59:29.946Z,17.55
2023-04-08T02:01:57.400Z,19.70
2023-04-08T02:04:24.212Z,16.88
2023-04-08T02:06:51.108Z,14.65
2023-04-08T02:09:17.817Z,14.38
2023-04-08T02:11:44.374Z,13.20
2023-04-08T02:14:11.061Z,14.35
2023-04-08T02:16:50.130Z,16.00
2023-04-08T02:19:24.591Z,13.32
2023-04-08T02:21:57.780Z,14.20
2023-04-08T02:24:26.403Z,15.60
2023-04-08T02:26:55.852Z,14.63
2023-04-08T02:29:23.987Z,13.73
2023-04-08T02:31:51.807Z,14.57
2023-04-08T02:34:21.749Z,18.25
2023-04-08T02:36:48.656Z,15.02
2023-04-08T02:39:15.405Z,16.05
2023-04-08T02:41:42.018Z,18.42
2023-04-08T02:44:10.054Z,16.38
2023-04-08T02:46:36.787Z,15.52
2023-04-08T02:49:04.051Z,14.52
2023-04-08T02:51:30.702Z,19.83
2023-04-08T02:53:57.434Z,17.83
2023-04-08T02:56:24.125Z,16.02
2023-04-08T02:58:52.392Z,18.23
2023-04-08T03:01:19.120Z,17.98
2023-04-08T03:03:46.051Z,16.02
2023-04-08T03:06:12.869Z,21.67
2023-04-08T03:08:39.581Z,21.52
2023-04-08T03:11:06.206Z,16.73
2023-04-08T03:13:32.938Z,15.70
2023-04-08T03:15:59.644Z,15.07
2023-04-08T03:18:26.410Z,16.73
2023-04-08T03:20:53.018Z,19.63
2023-04-08T03:23:19.873Z,14.45
2023-04-08T03:25:46.984Z,14.23
2023-04-08T03:28:13.547Z,16.65
2023-04-08T03:30:40.323Z,14.43
2023-04-08T03:33:08.280Z,14.10
2023-04-08T03:35:35.201Z,18.08
2023-04-08T03:38:01.951Z,17.02
2023-04-08T03:40:28.607Z,17.58
2023-04-08T03:42:55.249Z,21.35
2023-04-08T03:45:22.140Z,15.02
2023-04-08T03:47:48.782Z,16.27
2023-04-08T03:50:15.618Z,16.50
2023-04-08T03:52:42.374Z,13.88
2023-04-08T03:55:09.459Z,14.48
2023-04-08T03:57:36.110Z,19.00
2023-04-08T04:00:02.787Z,16.33
2023-04-08T04:02:29.742Z,16.42
2023-04-08T04:04:56.664Z,14.50
2023-04-08T04:07:23.385Z,14.35
2023-04-08T04:09:54.103Z,13.10
2023-04-08T04:12:21.614Z,15.80
2023-04-08T04:14:48.191Z,14.38
2023-04-08T04:17:14.888Z,15.82
2023-04-08T04:19:41.574Z,15.00
2023-04-08T04:22:08.213Z,19.40
2023-04-08T04:24:34.887Z,19.02
2023-04-08T04:27:01.506Z,14.23
2023-04-08T04:29:28.103Z,16.35
2023-04-08T04:31:54.679Z,15.57
2023-04-08T04:34:21.303Z,17.13
2023-04-08T04:36:48.084Z,22.23
2023-04-08T04:39:14.689Z,23.67
2023-04-08T04:41:41.360Z,19.65
2023-04-08T04:44:07.990Z,19.63
2023-04-08T04:46:34.721Z,21.30
2023-04-08T04:49:01.388Z,18.35
2023-04-08T04:51:27.985Z,20.33
2023-04-08T04:53:54.713Z,25.60
2023-04-08T04:56:21.815Z,18.42
2023-04-08T04:58:48.596Z,17.10
2023-04-08T05:01:15.780Z,20.65
2023-04-08T05:03:42.446Z,18.35
2023-04-08T05:06:09.196Z,16.17
2023-04-08T05:08:35.895Z,23.85
2023-04-08T05:11:02.527Z,18.98
2023-04-08T05:13:29.625Z,16.13
2023-04-08T05:15:56.206Z,20.40
2023-04-08T05:18:22.867Z,21.55
2023-04-08T05:20:49.531Z,14.27
2023-04-08T05:23:16.243Z,18.88
2023-04-08T05:25:42.947Z,17.88
2023-04-08T05:28:09.715Z,16.00
2023-04-08T05:30:36.415Z,16.13
2023-04-08T05:33:04.118Z,18.40
2023-04-08T05:35:30.978Z,18.40
2023-04-08T05:37:57.693Z,17.25
2023-04-08T05:40:24.385Z,18.52
2023-04-08T05:42:51.056Z,17.50
2023-04-08T05:45:17.881Z,22.50
2023-04-08T05:47:44.604Z,18.20
2023-04-08T05:50:11.561Z,15.38
2023-04-08T05:52:41.940Z,19.55
2023-04-08T05:55:08.978Z,19.90
2023-04-08T05:57:35.660Z,15.63
2023-04-08T06:00:02.463Z,22.67
2023-04-08T06:02:29.176Z,19.13
2023-04-08T06:04:55.987Z,21.35
2023-04-08T06:07:22.633Z,22.15
2023-04-08T06:09:49.314Z,26.70
2023-04-08T06:12:15.958Z,21.45
2023-04-08T06:14:42.708Z,18.38
2023-04-08T06:17:09.389Z,24.20
2023-04-08T06:19:36.109Z,21.85
2023-04-08T06:22:02.815Z,16.70
2023-04-08T06:24:29.574Z,49.10
2023-04-08T06:26:56.770Z,27.33
2023-04-08T06:29:23.968Z,18.92
2023-04-08T06:31:51.274Z,16.83
2023-04-08T06:34:18.008Z,20.25
2023-04-08T06:36:44.575Z,17.77
2023-04-08T06:39:11.441Z,16.60
2023-04-08T06:41:38.132Z,17.20
2023-04-08T06:44:04.846Z,17.35
2023-04-08T06:46:31.454Z,14.48
2023-04-08T06:48:58.174Z,25.35
2023-04-08T06:51:24.895Z,12.82
2023-04-08T06:53:51.507Z,16.85
2023-04-08T06:56:18.253Z,26.80
2023-04-08T06:58:44.988Z,18.67
2023-04-08T07:01:11.800Z,16.83
2023-04-08T07:03:38.514Z,17.90
2023-04-08T07:06:05.269Z,17.67
2023-04-08T07:08:31.842Z,14.00
2023-04-08T07:10:58.556Z,20.25
2023-04-08T07:13:25.218Z,21.50
2023-04-08T07:15:52.259Z,17.50
2023-04-08T07:18:18.919Z,14.88
2023-04-08T07:20:45.525Z,14.98
2023-04-08T07:23:12.073Z,12.13
2023-04-08T07:25:38.668Z,12.50
2023-04-08T07:28:05.365Z,13.95
2023-04-08T07:30:32.293Z,6.53
2023-04-08T07:33:00.917Z,13.15
2023-04-08T07:35:28.036Z,14.20
2023-04-08T07:37:55.675Z,13.07
2023-04-08T07:40:22.527Z,9.70
2023-04-08T07:42:49.382Z,12.45
2023-04-08T07:45:16.156Z,9.65
2023-04-08T07:47:42.821Z,10.10
2023-04-08T07:50:09.859Z,12.10
2023-04-08T07:52:36.429Z,12.75
2023-04-08T07:55:03.184Z,11.27
2023-04-08T07:57:29.953Z,12.23
2023-04-08T07:59:56.643Z,16.58
2023-04-08T08:02:23.814Z,12.80
2023-04-08T08:04:50.697Z,11.20
2023-04-08T08:07:17.557Z,10.25
2023-04-08T08:09:44.281Z,16.52
2023-04-08T08:12:11.720Z,14.43
2023-04-08T08:14:38.800Z,10.02
2023-04-08T08:17:05.524Z,10.75
2023-04-08T08:19:32.227Z,10.85
2023-04-08T08:21:58.867Z,8.85
2023-04-08T08:24:26.076Z,10.95
2023-04-08T08:26:52.756Z,12.55
2023-04-08T08:29:19.349Z,11.10
2023-04-08T08:31:46.278Z,9.40
2023-04-08T08:34:13.097Z,11.50
2023-04-08T08:36:39.879Z,11.52
2023-04-08T08:39:06.588Z,11.80
2023-04-08T08:41:36.104Z,12.10
2023-04-08T08:44:05.515Z,12.73
2023-04-08T08:46:32.454Z,9.82
2023-04-08T08:48:59.226Z,9.48
2023-04-08T08:51:28.013Z,9.80
2023-04-08T08:53:54.799Z,8.32
2023-04-08T08:56:22.116Z,11.05
2023-04-08T08:58:49.252Z,10.82
2023-04-08T09:01:34.341Z,12.63
2023-04-08T09:04:16.635Z,10.60
2023-04-08T09:06:48.862Z,10.70
2023-04-08T09:09:16.017Z,11.75
2023-04-08T09:11:45.050Z,12.63
2023-04-08T09:14:23.046Z,7.75
2023-04-08T09:16:51.169Z,11.25
2023-04-08T09:19:18.543Z,9.40
2023-04-08T09:21:45.451Z,11.20
2023-04-08T09:24:29.061Z,9.45
2023-04-08T09:26:56.616Z,10.68
2023-04-08T09:29:30.066Z,17.73
2023-04-08T09:32:00.313Z,8.95
2023-04-08T09:34:38.007Z,12.50
2023-04-08T09:37:04.697Z,12.65
2023-04-08T09:39:31.672Z,10.85
2023-04-08T09:42:01.555Z,12.40
2023-04-08T09:44:30.607Z,10.68
2023-04-08T09:47:08.565Z,8.77
2023-04-08T09:49:41.013Z,11.23
2023-04-08T09:52:11.303Z,9.13
2023-04-08T09:54:41.142Z,9.70
2023-04-08T09:57:16.437Z,12.63
2023-04-08T09:59:51.367Z,11.20
2023-04-08T10:02:29.519Z,9.00
2023-04-08T10:05:01.242Z,9.07
2023-04-08T10:07:28.203Z,7.57
2023-04-08T10:09:55.135Z,12.15
2023-04-08T10:12:22.024Z,11.43
2023-04-08T10:15:26.493Z,11.93
2023-04-08T10:18:20.391Z,9.10
2023-04-08T10:20:49.340Z,11.70
2023-04-08T10:23:19.244Z,8.75
2023-04-08T10:25:50.223Z,9.63
2023-04-08T10:28:18.307Z,17.77
2023-04-08T10:30:46.743Z,13.20
2023-04-08T10:33:22.014Z,9.90
2023-04-08T10:36:10.386Z,10.27
2023-04-08T10:38:40.197Z,10.45
2023-04-08T10:41:06.936Z,11.35
2023-04-08T10:43:34.668Z,14.93
2023-04-08T10:46:02.253Z,9.60
2023-04-08T10:48:29.442Z,8.50
2023-04-08T10:51:04.099Z,11.25
2023-04-08T10:53:33.786Z,9.57
2023-04-08T10:56:19.666Z,10.65
2023-04-08T10:58:56.303Z,7.88
2023-04-08T11:01:23.702Z,9.00
2023-04-08T11:03:50.861Z,13.38
2023-04-08T11:06:19.593Z,9.48
2023-04-08T11:08:46.451Z,10.05
2023-04-08T11:11:13.297Z,7.75
2023-04-08T11:13:51.051Z,10.00
2023-04-08T11:16:20.881Z,9.30
2023-04-08T11:18:48.326Z,9.48
2023-04-08T11:21:16.839Z,9.15
2023-04-08T11:23:43.808Z,10.27
2023-04-08T11:26:11.449Z,7.70
2023-04-08T11:28:38.850Z,8.73
2023-04-08T11:31:06.375Z,11.07
2023-04-08T11:33:35.191Z,9.45
2023-04-08T11:36:04.784Z,6.68
2023-04-08T11:38:32.894Z,7.18
2023-04-08T11:41:00.630Z,11.93
2023-04-08T11:43:27.669Z,20.02
2023-04-08T11:45:54.547Z,9.43
2023-04-08T11:48:21.499Z,9.50
2023-04-08T11:50:48.684Z,9.18
2023-04-08T11:53:22.686Z,6.68
2023-04-08T11:55:49.636Z,9.88
2023-04-08T11:58:16.551Z,10.63
2023-04-08T12:00:43.930Z,8.93
2023-04-08T12:03:11.667Z,6.63
2023-04-08T12:05:39.057Z,7.15
2023-04-08T12:08:06.020Z,9.85
2023-04-08T12:10:33.060Z,6.68
2023-04-08T12:12:59.713Z,8.55
2023-04-08T12:15:26.745Z,8.98
2023-04-08T12:17:53.614Z,13.52
2023-04-08T12:20:21.064Z,8.38
2023-04-08T12:22:48.045Z,9.73
2023-04-08T12:25:14.908Z,8.40
2023-04-08T12:27:42.300Z,8.57
2023-04-08T12:30:09.898Z,7.00
2023-04-08T12:32:36.650Z,12.57
2023-04-08T12:35:03.531Z,6.28
2023-04-08T12:37:30.472Z,6.90
2023-04-08T12:39:57.431Z,9.13
2023-04-08T12:42:24.381Z,6.70
2023-04-08T12:44:51.121Z,10.05
2023-04-08T12:47:18.538Z,6.85
2023-04-08T12:49:49.698Z,7.07
2023-04-08T12:52:17.685Z,8.03
2023-04-08T12:54:44.825Z,6.43
2023-04-08T12:57:12.015Z,8.20
2023-04-08T12:59:40.179Z,5.57
2023-04-08T13:02:08.109Z,7.65
2023-04-08T13:04:35.447Z,6.50
2023-04-08T13:07:02.566Z,5.47
2023-04-08T13:09:30.792Z,8.48
2023-04-08T13:11:58.456Z,7.90
2023-04-08T13:14:25.837Z,6.97
2023-04-08T13:16:52.818Z,8.02
2023-04-08T13:19:19.808Z,6.07
2023-04-08T13:21:46.660Z,8.10
2023-04-08T13:24:13.437Z,7.28
2023-04-08T13:26:40.667Z,8.15
2023-04-08T13:29:07.509Z,6.10
2023-04-08T13:31:34.595Z,8.93
2023-04-08T13:34:01.556Z,5.10
2023-04-08T13:36:29.159Z,5.60
2023-04-08T13:38:56.669Z,5.05
2023-04-08T13:41:23.712Z,6.03
2023-04-08T13:43:50.596Z,6.38
2023-04-08T13:46:18.262Z,10.13
2023-04-08T13:48:46.556Z,4.72
2023-04-08T13:51:13.758Z,4.38
2023-04-08T13:53:41.003Z,4.50
2023-04-08T13:56:08.198Z,4.45
2023-04-08T13:58:35.595Z,8.00
2023-04-08T14:01:02.859Z,4.28
2023-04-08T14:03:29.694Z,9.55
2023-04-08T14:05:58.136Z,3.25
2023-04-08T14:08:26.060Z,4.57
2023-04-08T14:10:53.856Z,6.20
2023-04-08T14:13:21.010Z,4.32
2023-04-08T14:15:48.261Z,5.70
2023-04-08T14:18:17.683Z,6.45
2023-04-08T14:20:44.605Z,5.53
2023-04-08T14:23:13.505Z,7.78
2023-04-08T14:25:41.054Z,5.88
2023-04-08T14:28:08.098Z,5.10
2023-04-08T14:30:36.545Z,7.55
2023-04-08T14:33:05.356Z,4.60
2023-04-08T14:35:32.196Z,9.15
2023-04-08T14:37:59.439Z,6.15
2023-04-08T14:40:26.291Z,4.07
2023-04-08T14:42:53.219Z,5.72
2023-04-08T14:45:20.117Z,7.75
2023-04-08T14:47:47.197Z,5.25
2023-04-08T14:50:14.083Z,8.43
2023-04-08T14:52:41.067Z,6.07
2023-04-08T14:55:08.065Z,4.57
2023-04-08T14:57:34.687Z,7.85
2023-04-08T15:00:01.940Z,4.90
2023-04-08T15:02:28.793Z,6.00
2023-04-08T15:04:55.654Z,6.63
2023-04-08T15:07:22.758Z,7.53
2023-04-08T15:09:49.452Z,9.07
2023-04-08T15:12:16.248Z,8.43
2023-04-08T15:14:43.090Z,7.88
2023-04-08T15:17:10.378Z,6.22
2023-04-08T15:19:37.197Z,6.95
2023-04-08T15:22:04.031Z,7.20
2023-04-08T15:24:30.843Z,6.53
2023-04-08T15:26:57.673Z,7.63
2023-04-08T15:29:24.806Z,10.95
2023-04-08T15:31:52.604Z,8.70
2023-04-08T15:34:19.472Z,8.02
2023-04-08T15:36:47.462Z,6.25
2023-04-08T15:39:14.256Z,8.55
2023-04-08T15:41:41.798Z,10.38
2023-04-08T15:44:08.581Z,7.28
2023-04-08T15:46:37.435Z,6.63
2023-04-08T15:49:05.111Z,7.95
2023-04-08T15:51:32.485Z,5.55
2023-04-08T15:53:59.931Z,5.30
2023-04-08T15:56:28.360Z,6.05
2023-04-08T15:58:56.860Z,7.68
2023-04-08T16:01:23.627Z,6.85
2023-04-08T16:03:50.741Z,4.95
2023-04-08T16:06:17.801Z,5.18
2023-04-08T16:08:47.044Z,4.93
2023-04-08T16:11:13.810Z,8.70
2023-04-08T16:13:42.416Z,4.78
2023-04-08T16:16:09.639Z,6.75
2023-04-08T16:18:36.460Z,6.32
2023-04-08T16:21:06.614Z,5.10
2023-04-08T16:23:35.663Z,5.00
2023-04-08T16:26:02.551Z,7.70
2023-04-08T16:28:29.488Z,5.35
2023-04-08T16:30:56.136Z,5.63
2023-04-08T16:33:29.860Z,6.75
2023-04-08T16:36:04.299Z,7.30
2023-04-08T16:38:31.080Z,6.60
2023-04-08T16:41:01.220Z,6.20
2023-04-08T16:43:28.103Z,5.25
2023-04-08T16:45:55.061Z,11.52
2023-04-08T16:48:22.482Z,8.18
2023-04-08T16:50:49.289Z,7.10
2023-04-08T16:53:16.007Z,7.55
2023-04-08T16:55:42.780Z,6.93
2023-04-08T16:58:09.595Z,6.90
2023-04-08T17:00:36.452Z,9.32
2023-04-08T17:03:03.470Z,7.13
2023-04-08T17:05:30.235Z,7.45
2023-04-08T17:07:57.199Z,5.43
2023-04-08T17:10:24.397Z,4.95
2023-04-08T17:12:51.623Z,5.82
2023-04-08T17:15:18.379Z,7.50
2023-04-08T17:17:45.463Z,6.05
2023-04-08T17:20:12.481Z,10.57
2023-04-08T17:22:39.418Z,9.77
2023-04-08T17:25:06.708Z,10.25
2023-04-08T17:27:34.043Z,8.15
2023-04-08T17:30:00.817Z,8.43
2023-04-08T17:32:27.760Z,8.68
2023-04-08T17:34:54.765Z,8.60
2023-04-08T17:37:21.753Z,11.23
2023-04-08T17:39:48.452Z,13.60
2023-04-08T17:42:15.107Z,30.83
2023-04-08T17:44:42.215Z,18.95
2023-04-08T17:47:09.185Z,14.68
2023-04-08T17:49:36.198Z,14.52
2023-04-08T17:52:03.134Z,14.20
2023-04-08T17:54:31.523Z,18.83
2023-04-08T17:56:58.532Z,12.82
2023-04-08T17:59:25.762Z,17.30
2023-04-08T18:01:52.788Z,15.80
2023-04-08T18:04:19.670Z,18.25
2023-04-08T18:06:46.815Z,21.83
2023-04-08T18:09:15.970Z,23.00
2023-04-08T18:11:42.790Z,18.98
2023-04-08T18:14:09.524Z,24.42
2023-04-08T18:16:36.293Z,24.67
2023-04-08T18:19:03.388Z,19.15
2023-04-08T18:21:31.750Z,18.17
2023-04-08T18:23:58.449Z,22.27
2023-04-08T18:26:25.570Z,17.95
2023-04-08T18:28:52.299Z,15.60
2023-04-08T18:31:19.224Z,16.23
2023-04-08T18:33:46.113Z,16.48
2023-04-08T18:36:13.946Z,16.55
2023-04-08T18:38:41.320Z,24.50
2023-04-08T18:41:08.464Z,18.73
2023-04-08T18:43:35.318Z,17.02
2023-04-08T18:46:02.357Z,18.70
2023-04-08T18:48:30.041Z,21.73
2023-04-08T18:50:57.896Z,18.15
2023-04-08T18:53:24.670Z,19.23
2023-04-08T18:55:51.861Z,18.40
2023-04-08T18:58:19.014Z,20.00
2023-04-08T19:00:46.208Z,20.92
2023-04-08T19:03:13.278Z,18.70
2023-04-08T19:05:40.254Z,20.10
2023-04-08T19:08:07.100Z,22.08
2023-04-08T19:10:34.593Z,21.70
2023-04-08T19:13:04.091Z,21.95
2023-04-08T19:15:31.234Z,22.67
2023-04-08T19:17:59.320Z,24.63
2023-04-08T19:20:29.065Z,23.38
2023-04-08T19:22:56.057Z,30.55
2023-04-08T19:25:22.972Z,35.60
2023-04-08T19:27:49.992Z,32.47
2023-04-08T19:30:16.916Z,37.63
2023-04-08T19:32:44.755Z,42.72
2023-04-08T19:35:13.111Z,40.95
2023-04-08T19:37:40.558Z,41.35
2023-04-08T19:40:09.057Z,48.40
2023-04-08T19:42:36.563Z,46.70
2023-04-08T19:45:03.854Z,41.40
2023-04-08T19:47:30.603Z,35.75
2023-04-08T19:49:58.470Z,28.90
2023-04-08T19:52:25.586Z,29.70
2023-04-08T19:54:52.588Z,27.65
2023-04-08T19:57:20.711Z,29.35
2023-04-08T19:59:50.234Z,28.83
2023-04-08T20:02:17.269Z,26.85
2023-04-08T20:04:45.735Z,32.60
2023-04-08T20:07:13.360Z,31.25
2023-04-08T20:09:40.120Z,24.83
2023-04-08T20:12:07.139Z,25.00
2023-04-08T20:14:40.636Z,23.50
2023-04-08T20:17:07.699Z,24.33
2023-04-08T20:19:36.967Z,27.05
2023-04-08T20:22:06.216Z,22.17
2023-04-08T20:24:33.149Z,24.52
2023-04-08T20:27:00.393Z,27.27
2023-04-08T20:29:28.716Z,27.63
2023-04-08T20:31:55.680Z,23.02
2023-04-08T20:34:22.625Z,23.70
2023-04-08T20:36:49.408Z,23.55
2023-04-08T20:39:16.500Z,22.92
2023-04-08T20:41:43.351Z,22.38
2023-04-08T20:44:10.842Z,22.98
2023-04-08T20:46:38.400Z,21.30
2023-04-08T20:49:08.164Z,22.98
2023-04-08T20:51:35.360Z,23.23
2023-04-08T20:54:05.557Z,26.02
2023-04-08T20:56:32.591Z,31.60
2023-04-08T20:59:00.450Z,31.23
2023-04-08T21:01:27.454Z,31.90
2023-04-08T21:03:54.906Z,30.83
2023-04-08T21:06:22.314Z,27.95
2023-04-08T21:08:50.210Z,29.75
2023-04-08T21:11:17.401Z,30.80
2023-04-08T21:13:45.024Z,32.78
2023-04-08T21:16:13.524Z,32.05
2023-04-08T21:18:40.691Z,31.45
2023-04-08T21:21:09.766Z,26.48
2023-04-08T21:23:36.504Z,25.40
2023-04-08T21:26:03.776Z,29.65
2023-04-08T21:28:30.945Z,28.83
2023-04-08T21:31:08.183Z,26.80
2023-04-08T21:33:34.967Z,28.50
2023-04-08T21:36:01.805Z,26.92
2023-04-08T21:38:28.758Z,30.05
2023-04-08T21:40:55.749Z,29.38
2023-04-08T21:43:22.597Z,24.00
2023-04-08T21:45:49.447Z,26.40
2023-04-08T21:48:16.285Z,41.95
2023-04-08T21:50:43.098Z,34.30
2023-04-08T21:53:09.747Z,26.55
2023-04-08T21:55:36.499Z,27.48
2023-04-08T21:58:03.356Z,28.92
2023-04-08T22:00:30.250Z,29.08
2023-04-08T22:02:57.238Z,27.08
2023-04-08T22:05:24.071Z,27.15
2023-04-08T22:07:50.835Z,26.17
2023-04-08T22:10:17.588Z,24.83
2023-04-08T22:12:44.398Z,24.30
2023-04-08T22:15:11.443Z,25.63
2023-04-08T22:17:38.389Z,23.80
2023-04-08T22:20:05.722Z,21.88
2023-04-08T22:22:32.689Z,26.98
2023-04-08T22:24:59.429Z,25.48
2023-04-08T22:27:28.560Z,26.73
2023-04-08T22:29:55.330Z,27.17
2023-04-08T22:32:21.929Z,25.85
2023-04-08T22:34:48.739Z,28.10
2023-04-08T22:37:15.574Z,29.40
2023-04-08T22:39:42.217Z,30.60
2023-04-08T22:42:09.088Z,30.13
2023-04-08T22:44:36.117Z,33.97
2023-04-08T22:47:02.952Z,27.30
2023-04-08T22:49:29.718Z,33.10
2023-04-08T22:51:56.417Z,25.33
2023-04-08T22:54:23.259Z,28.83
2023-04-08T22:56:50.026Z,24.90
2023-04-08T22:59:25.555Z,29.45
2023-04-08T23:01:52.335Z,31.05
2023-04-08T23:04:19.092Z,26.75
2023-04-08T23:06:46.027Z,26.17
2023-04-08T23:09:12.955Z,28.05
2023-04-08T23:11:39.716Z,25.63
2023-04-08T23:14:06.530Z,25.40
2023-04-08T23:16:35.385Z,29.88
2023-04-08T23:19:02.243Z,26.33
2023-04-08T23:21:29.047Z,27.38
2023-04-08T23:23:55.885Z,28.42
2023-04-08T23:26:22.525Z,31.02
2023-04-08T23:28:49.900Z,26.58
2023-04-08T23:31:17.368Z,26.75
2023-04-08T23:33:44.156Z,27.77
2023-04-08T23:36:12.045Z,29.20
2023-04-08T23:38:39.002Z,26.10
2023-04-08T23:41:07.016Z,27.92
2023-04-08T23:43:34.517Z,25.27
2023-04-08T23:46:01.338Z,30.45
2023-04-08T23:48:28.208Z,22.48
2023-04-08T23:50:55.570Z,23.67
2023-04-08T23:53:22.637Z,21.63
2023-04-08T23:55:49.470Z,23.17
2023-04-08T23:58:16.451Z,24.08
